sensor_id;sensor_type;location;lat;lon;timestamp;temperature;humidity
68556;HTU21D;55544;51.032;5.866;2023-07-08T00:00:24;24.31;49.49
68556;HTU21D;55544;51.032;5.866;2023-07-08T00:02:52;24.16;49.33
68556;HTU21D;55544;51.032;5.866;2023-07-08T00:05:21;24.15;49.56
68556;HTU21D;55544;51.032;5.866;2023-07-08T00:07:47;24.20;49.34
68556;HTU21D;55544;51.032;5.866;2023-07-08T00:12:42;24.18;49.36
68556;HTU21D;55544;51.032;5.866;2023-07-08T00:15:09;24.09;49.98
68556;HTU21D;55544;51.032;5.866;2023-07-08T00:17:36;24.10;49.53
68556;HTU21D;55544;51.032;5.866;2023-07-08T00:20:08;24.04;49.18
68556;HTU21D;55544;51.032;5.866;2023-07-08T00:22:34;23.95;49.20
68556;HTU21D;55544;51.032;5.866;2023-07-08T00:25:01;23.89;49.37
68556;HTU21D;55544;51.032;5.866;2023-07-08T00:27:27;23.90;49.02
68556;HTU21D;55544;51.032;5.866;2023-07-08T00:29:53;23.94;48.86
68556;HTU21D;55544;51.032;5.866;2023-07-08T00:32:19;23.95;48.93
68556;HTU21D;55544;51.032;5.866;2023-07-08T00:34:45;23.95;48.87
68556;HTU21D;55544;51.032;5.866;2023-07-08T00:37:11;23.92;48.60
68556;HTU21D;55544;51.032;5.866;2023-07-08T00:39:38;23.92;48.50
68556;HTU21D;55544;51.032;5.866;2023-07-08T00:42:24;23.90;48.27
68556;HTU21D;55544;51.032;5.866;2023-07-08T00:44:51;23.92;48.59
68556;HTU21D;55544;51.032;5.866;2023-07-08T00:47:17;23.94;48.60
68556;HTU21D;55544;51.032;5.866;2023-07-08T00:50:03;23.89;48.28
68556;HTU21D;55544;51.032;5.866;2023-07-08T00:52:31;23.77;48.59
68556;HTU21D;55544;51.032;5.866;2023-07-08T00:55:07;23.72;49.20
68556;HTU21D;55544;51.032;5.866;2023-07-08T00:57:39;23.65;49.66
68556;HTU21D;55544;51.032;5.866;2023-07-08T01:00:15;23.56;50.05
68556;HTU21D;55544;51.032;5.866;2023-07-08T01:02:49;23.53;49.83
68556;HTU21D;55544;51.032;5.866;2023-07-08T01:05:23;23.53;49.69
68556;HTU21D;55544;51.032;5.866;2023-07-08T01:08:02;23.59;49.79
68556;HTU21D;55544;51.032;5.866;2023-07-08T01:10:52;23.64;49.12
68556;HTU21D;55544;51.032;5.866;2023-07-08T01:13:21;23.68;49.15
68556;HTU21D;55544;51.032;5.866;2023-07-08T01:15:48;23.70;49.20
68556;HTU21D;55544;51.032;5.866;2023-07-08T01:18:17;23.71;49.12
68556;HTU21D;55544;51.032;5.866;2023-07-08T01:20:47;23.70;50.42
68556;HTU21D;55544;51.032;5.866;2023-07-08T01:23:13;23.64;51.85
68556;HTU21D;55544;51.032;5.866;2023-07-08T01:25:42;23.57;52.58
68556;HTU21D;55544;51.032;5.866;2023-07-08T01:28:09;23.46;53.32
68556;HTU21D;55544;51.032;5.866;2023-07-08T01:30:35;23.39;53.46
68556;HTU21D;55544;51.032;5.866;2023-07-08T01:33:09;23.34;53.76
68556;HTU21D;55544;51.032;5.866;2023-07-08T01:35:37;23.26;54.24
68556;HTU21D;55544;51.032;5.866;2023-07-08T01:38:10;23.23;54.23
68556;HTU21D;55544;51.032;5.866;2023-07-08T01:40:39;23.15;54.12
68556;HTU21D;55544;51.032;5.866;2023-07-08T01:43:16;23.03;54.19
68556;HTU21D;55544;51.032;5.866;2023-07-08T01:45:43;22.93;54.55
68556;HTU21D;55544;51.032;5.866;2023-07-08T01:48:15;22.83;55.05
68556;HTU21D;55544;51.032;5.866;2023-07-08T01:50:58;22.77;55.19
68556;HTU21D;55544;51.032;5.866;2023-07-08T01:53:38;22.70;55.26
68556;HTU21D;55544;51.032;5.866;2023-07-08T01:56:06;22.70;55.33
68556;HTU21D;55544;51.032;5.866;2023-07-08T01:58:33;22.72;54.89
68556;HTU21D;55544;51.032;5.866;2023-07-08T02:00:59;22.72;54.73
68556;HTU21D;55544;51.032;5.866;2023-07-08T02:03:26;22.71;54.68
68556;HTU21D;55544;51.032;5.866;2023-07-08T02:05:54;22.72;54.92
68556;HTU21D;55544;51.032;5.866;2023-07-08T02:08:21;22.70;55.58
68556;HTU21D;55544;51.032;5.866;2023-07-08T02:10:53;22.66;56.60
68556;HTU21D;55544;51.032;5.866;2023-07-08T02:13:20;22.63;57.00
68556;HTU21D;55544;51.032;5.866;2023-07-08T02:15:47;22.57;56.77
68556;HTU21D;55544;51.032;5.866;2023-07-08T02:18:13;22.47;57.15
68556;HTU21D;55544;51.032;5.866;2023-07-08T02:20:43;22.41;57.29
68556;HTU21D;55544;51.032;5.866;2023-07-08T02:23:08;22.34;57.49
68556;HTU21D;55544;51.032;5.866;2023-07-08T02:25:34;22.16;58.09
68556;HTU21D;55544;51.032;5.866;2023-07-08T02:28:00;21.88;59.07
68556;HTU21D;55544;51.032;5.866;2023-07-08T02:30:26;21.74;59.43
68556;HTU21D;55544;51.032;5.866;2023-07-08T02:32:53;21.58;59.60
68556;HTU21D;55544;51.032;5.866;2023-07-08T02:35:27;21.39;59.65
68556;HTU21D;55544;51.032;5.866;2023-07-08T02:37:54;21.24;59.44
68556;HTU21D;55544;51.032;5.866;2023-07-08T02:40:21;21.22;59.38
68556;HTU21D;55544;51.032;5.866;2023-07-08T02:42:48;21.25;59.17
68556;HTU21D;55544;51.032;5.866;2023-07-08T02:45:15;21.31;59.05
68556;HTU21D;55544;51.032;5.866;2023-07-08T02:47:41;21.42;58.53
68556;HTU21D;55544;51.032;5.866;2023-07-08T02:50:08;21.53;57.86
68556;HTU21D;55544;51.032;5.866;2023-07-08T02:52:35;21.60;57.48
68556;HTU21D;55544;51.032;5.866;2023-07-08T02:55:01;21.66;56.71
68556;HTU21D;55544;51.032;5.866;2023-07-08T02:57:27;21.70;56.50
68556;HTU21D;55544;51.032;5.866;2023-07-08T02:59:53;21.78;56.22
68556;HTU21D;55544;51.032;5.866;2023-07-08T03:02:18;21.80;55.61
68556;HTU21D;55544;51.032;5.866;2023-07-08T03:04:44;21.76;55.38
68556;HTU21D;55544;51.032;5.866;2023-07-08T03:07:11;21.80;55.44
68556;HTU21D;55544;51.032;5.866;2023-07-08T03:09:40;21.84;55.14
68556;HTU21D;55544;51.032;5.866;2023-07-08T03:12:09;21.91;54.89
68556;HTU21D;55544;51.032;5.866;2023-07-08T03:14:36;21.95;54.63
68556;HTU21D;55544;51.032;5.866;2023-07-08T03:17:02;22.01;54.19
68556;HTU21D;55544;51.032;5.866;2023-07-08T03:19:28;22.02;53.73
68556;HTU21D;55544;51.032;5.866;2023-07-08T03:21:54;21.99;53.28
68556;HTU21D;55544;51.032;5.866;2023-07-08T03:24:20;22.01;53.18
68556;HTU21D;55544;51.032;5.866;2023-07-08T03:26:47;22.01;53.20
68556;HTU21D;55544;51.032;5.866;2023-07-08T03:29:15;21.99;53.49
68556;HTU21D;55544;51.032;5.866;2023-07-08T03:31:43;21.96;53.68
68556;HTU21D;55544;51.032;5.866;2023-07-08T03:34:14;21.89;54.10
68556;HTU21D;55544;51.032;5.866;2023-07-08T03:36:44;21.85;54.31
68556;HTU21D;55544;51.032;5.866;2023-07-08T03:39:20;21.83;54.31
68556;HTU21D;55544;51.032;5.866;2023-07-08T03:41:46;21.83;54.14
68556;HTU21D;55544;51.032;5.866;2023-07-08T03:44:12;21.82;53.78
68556;HTU21D;55544;51.032;5.866;2023-07-08T03:46:38;21.84;53.58
68556;HTU21D;55544;51.032;5.866;2023-07-08T03:49:06;21.81;53.38
68556;HTU21D;55544;51.032;5.866;2023-07-08T03:51:35;21.76;53.49
68556;HTU21D;55544;51.032;5.866;2023-07-08T03:54:02;21.73;54.46
68556;HTU21D;55544;51.032;5.866;2023-07-08T03:56:32;21.64;55.24
68556;HTU21D;55544;51.032;5.866;2023-07-08T03:58:58;21.58;55.43
68556;HTU21D;55544;51.032;5.866;2023-07-08T04:01:25;21.52;55.49
68556;HTU21D;55544;51.032;5.866;2023-07-08T04:03:54;21.50;55.76
68556;HTU21D;55544;51.032;5.866;2023-07-08T04:06:20;21.47;55.81
68556;HTU21D;55544;51.032;5.866;2023-07-08T04:08:47;21.47;55.86
68556;HTU21D;55544;51.032;5.866;2023-07-08T04:11:19;21.44;55.92
68556;HTU21D;55544;51.032;5.866;2023-07-08T04:13:45;21.32;56.79
68556;HTU21D;55544;51.032;5.866;2023-07-08T04:16:47;21.27;57.42
68556;HTU21D;55544;51.032;5.866;2023-07-08T04:19:14;21.30;57.37
68556;HTU21D;55544;51.032;5.866;2023-07-08T04:21:41;21.35;57.09
68556;HTU21D;55544;51.032;5.866;2023-07-08T04:24:10;21.40;56.92
68556;HTU21D;55544;51.032;5.866;2023-07-08T04:26:37;21.45;56.82
68556;HTU21D;55544;51.032;5.866;2023-07-08T04:29:10;21.49;56.51
68556;HTU21D;55544;51.032;5.866;2023-07-08T04:31:36;21.52;56.45
68556;HTU21D;55544;51.032;5.866;2023-07-08T04:34:02;21.55;56.42
68556;HTU21D;55544;51.032;5.866;2023-07-08T04:36:28;21.59;56.42
68556;HTU21D;55544;51.032;5.866;2023-07-08T04:38:53;21.58;56.39
68556;HTU21D;55544;51.032;5.866;2023-07-08T04:41:20;21.59;56.48
68556;HTU21D;55544;51.032;5.866;2023-07-08T04:43:46;21.59;56.53
68556;HTU21D;55544;51.032;5.866;2023-07-08T04:46:22;21.58;56.52
68556;HTU21D;55544;51.032;5.866;2023-07-08T04:48:50;21.55;56.71
68556;HTU21D;55544;51.032;5.866;2023-07-08T04:51:16;21.51;57.23
68556;HTU21D;55544;51.032;5.866;2023-07-08T04:53:41;21.47;58.03
68556;HTU21D;55544;51.032;5.866;2023-07-08T04:56:07;21.47;58.21
68556;HTU21D;55544;51.032;5.866;2023-07-08T04:58:33;21.48;58.25
68556;HTU21D;55544;51.032;5.866;2023-07-08T05:00:59;21.49;58.32
68556;HTU21D;55544;51.032;5.866;2023-07-08T05:03:24;21.49;58.61
68556;HTU21D;55544;51.032;5.866;2023-07-08T05:05:50;21.48;58.93
68556;HTU21D;55544;51.032;5.866;2023-07-08T05:08:16;21.44;58.87
68556;HTU21D;55544;51.032;5.866;2023-07-08T05:10:41;21.45;59.02
68556;HTU21D;55544;51.032;5.866;2023-07-08T05:13:07;21.49;59.03
68556;HTU21D;55544;51.032;5.866;2023-07-08T05:15:33;21.52;59.00
68556;HTU21D;55544;51.032;5.866;2023-07-08T05:17:58;21.54;58.68
68556;HTU21D;55544;51.032;5.866;2023-07-08T05:20:24;21.49;58.61
68556;HTU21D;55544;51.032;5.866;2023-07-08T05:22:50;21.45;58.64
68556;HTU21D;55544;51.032;5.866;2023-07-08T05:25:18;21.44;58.95
68556;HTU21D;55544;51.032;5.866;2023-07-08T05:27:44;21.45;59.64
68556;HTU21D;55544;51.032;5.866;2023-07-08T05:30:15;21.48;59.61
68556;HTU21D;55544;51.032;5.866;2023-07-08T05:32:41;21.59;59.22
68556;HTU21D;55544;51.032;5.866;2023-07-08T05:35:07;21.68;58.98
68556;HTU21D;55544;51.032;5.866;2023-07-08T05:37:33;21.76;58.38
68556;HTU21D;55544;51.032;5.866;2023-07-08T05:39:59;21.83;58.15
68556;HTU21D;55544;51.032;5.866;2023-07-08T05:42:27;21.88;57.99
68556;HTU21D;55544;51.032;5.866;2023-07-08T05:44:53;21.93;57.74
68556;HTU21D;55544;51.032;5.866;2023-07-08T05:47:21;21.98;57.89
68556;HTU21D;55544;51.032;5.866;2023-07-08T05:49:47;22.02;57.89
68556;HTU21D;55544;51.032;5.866;2023-07-08T05:52:13;22.05;57.92
68556;HTU21D;55544;51.032;5.866;2023-07-08T05:54:41;22.11;57.59
68556;HTU21D;55544;51.032;5.866;2023-07-08T05:57:09;22.17;57.14
68556;HTU21D;55544;51.032;5.866;2023-07-08T05:59:36;22.23;56.78
68556;HTU21D;55544;51.032;5.866;2023-07-08T06:02:03;22.28;56.36
68556;HTU21D;55544;51.032;5.866;2023-07-08T06:04:29;22.35;56.07
68556;HTU21D;55544;51.032;5.866;2023-07-08T06:06:56;22.40;55.95
68556;HTU21D;55544;51.032;5.866;2023-07-08T06:09:22;22.42;55.79
68556;HTU21D;55544;51.032;5.866;2023-07-08T06:11:48;22.49;56.03
68556;HTU21D;55544;51.032;5.866;2023-07-08T06:14:13;22.56;56.23
68556;HTU21D;55544;51.032;5.866;2023-07-08T06:16:39;22.65;56.13
68556;HTU21D;55544;51.032;5.866;2023-07-08T06:19:05;22.73;55.84
68556;HTU21D;55544;51.032;5.866;2023-07-08T06:21:31;22.84;55.48
68556;HTU21D;55544;51.032;5.866;2023-07-08T06:23:57;22.94;54.94
68556;HTU21D;55544;51.032;5.866;2023-07-08T06:26:23;23.02;54.27
68556;HTU21D;55544;51.032;5.866;2023-07-08T06:28:49;23.09;53.96
68556;HTU21D;55544;51.032;5.866;2023-07-08T06:31:15;23.16;53.81
68556;HTU21D;55544;51.032;5.866;2023-07-08T06:33:41;23.23;53.72
68556;HTU21D;55544;51.032;5.866;2023-07-08T06:36:07;23.32;53.41
68556;HTU21D;55544;51.032;5.866;2023-07-08T06:38:33;23.43;52.91
68556;HTU21D;55544;51.032;5.866;2023-07-08T06:40:59;23.51;52.59
68556;HTU21D;55544;51.032;5.866;2023-07-08T06:43:25;23.58;52.14
68556;HTU21D;55544;51.032;5.866;2023-07-08T06:46:22;23.69;52.09
68556;HTU21D;55544;51.032;5.866;2023-07-08T06:48:48;23.77;51.82
68556;HTU21D;55544;51.032;5.866;2023-07-08T06:51:13;23.85;51.68
68556;HTU21D;55544;51.032;5.866;2023-07-08T06:53:39;23.90;51.25
68556;HTU21D;55544;51.032;5.866;2023-07-08T06:56:05;24.00;51.71
68556;HTU21D;55544;51.032;5.866;2023-07-08T06:58:30;24.12;51.48
68556;HTU21D;55544;51.032;5.866;2023-07-08T07:00:56;24.26;51.37
68556;HTU21D;55544;51.032;5.866;2023-07-08T07:03:22;24.41;51.76
68556;HTU21D;55544;51.032;5.866;2023-07-08T07:05:47;24.55;51.17
68556;HTU21D;55544;51.032;5.866;2023-07-08T07:08:13;24.69;50.31
68556;HTU21D;55544;51.032;5.866;2023-07-08T07:10:39;24.86;50.18
68556;HTU21D;55544;51.032;5.866;2023-07-08T07:13:05;24.99;49.35
68556;HTU21D;55544;51.032;5.866;2023-07-08T07:15:30;25.16;48.94
68556;HTU21D;55544;51.032;5.866;2023-07-08T07:17:58;25.33;48.67
68556;HTU21D;55544;51.032;5.866;2023-07-08T07:20:26;25.52;48.24
68556;HTU21D;55544;51.032;5.866;2023-07-08T07:22:52;25.71;47.40
68556;HTU21D;55544;51.032;5.866;2023-07-08T07:25:19;25.88;46.97
68556;HTU21D;55544;51.032;5.866;2023-07-08T07:27:45;26.07;46.55
68556;HTU21D;55544;51.032;5.866;2023-07-08T07:30:11;26.23;45.91
68556;HTU21D;55544;51.032;5.866;2023-07-08T07:32:43;26.39;45.89
68556;HTU21D;55544;51.032;5.866;2023-07-08T07:35:13;26.56;45.40
68556;HTU21D;55544;51.032;5.866;2023-07-08T07:37:41;26.73;45.31
68556;HTU21D;55544;51.032;5.866;2023-07-08T07:40:09;26.90;44.94
68556;HTU21D;55544;51.032;5.866;2023-07-08T07:42:39;27.04;45.13
68556;HTU21D;55544;51.032;5.866;2023-07-08T07:45:06;27.17;44.23
68556;HTU21D;55544;51.032;5.866;2023-07-08T07:47:32;27.31;43.96
68556;HTU21D;55544;51.032;5.866;2023-07-08T07:49:58;27.44;43.82
68556;HTU21D;55544;51.032;5.866;2023-07-08T07:52:24;27.57;42.93
68556;HTU21D;55544;51.032;5.866;2023-07-08T07:54:59;27.61;43.15
68556;HTU21D;55544;51.032;5.866;2023-07-08T07:57:26;27.72;42.57
68556;HTU21D;55544;51.032;5.866;2023-07-08T07:59:51;27.81;42.99
68556;HTU21D;55544;51.032;5.866;2023-07-08T08:02:18;27.99;42.52
68556;HTU21D;55544;51.032;5.866;2023-07-08T08:04:44;28.16;42.58
68556;HTU21D;55544;51.032;5.866;2023-07-08T08:07:10;28.27;42.77
68556;HTU21D;55544;51.032;5.866;2023-07-08T08:09:36;28.42;43.28
68556;HTU21D;55544;51.032;5.866;2023-07-08T08:12:04;28.61;42.97
68556;HTU21D;55544;51.032;5.866;2023-07-08T08:14:30;28.78;42.61
68556;HTU21D;55544;51.032;5.866;2023-07-08T08:16:56;28.95;41.66
68556;HTU21D;55544;51.032;5.866;2023-07-08T08:19:22;29.11;41.55
68556;HTU21D;55544;51.032;5.866;2023-07-08T08:21:48;29.28;41.81
68556;HTU21D;55544;51.032;5.866;2023-07-08T08:24:14;29.45;41.87
68556;HTU21D;55544;51.032;5.866;2023-07-08T08:26:39;29.66;41.28
68556;HTU21D;55544;51.032;5.866;2023-07-08T08:29:05;29.83;41.10
68556;HTU21D;55544;51.032;5.866;2023-07-08T08:31:31;30.00;40.69
68556;HTU21D;55544;51.032;5.866;2023-07-08T08:33:57;30.13;39.56
68556;HTU21D;55544;51.032;5.866;2023-07-08T08:36:23;30.22;39.18
68556;HTU21D;55544;51.032;5.866;2023-07-08T08:38:49;30.40;39.38
68556;HTU21D;55544;51.032;5.866;2023-07-08T08:41:25;30.50;38.38
68556;HTU21D;55544;51.032;5.866;2023-07-08T08:43:55;30.66;38.79
68556;HTU21D;55544;51.032;5.866;2023-07-08T08:51:39;31.22;37.79
68556;HTU21D;55544;51.032;5.866;2023-07-08T08:54:08;31.38;37.23
68556;HTU21D;55544;51.032;5.866;2023-07-08T08:59:55;31.84;36.85
68556;HTU21D;55544;51.032;5.866;2023-07-08T09:02:51;31.89;36.75
68556;HTU21D;55544;51.032;5.866;2023-07-08T09:05:19;32.05;37.01
68556;HTU21D;55544;51.032;5.866;2023-07-08T09:10:57;32.46;36.50
68556;HTU21D;55544;51.032;5.866;2023-07-08T09:13:35;32.63;36.07
68556;HTU21D;55544;51.032;5.866;2023-07-08T09:19:22;33.04;34.53
68556;HTU21D;55544;51.032;5.866;2023-07-08T09:24:56;33.49;34.34
68556;HTU21D;55544;51.032;5.866;2023-07-08T09:27:23;33.61;33.83
68556;HTU21D;55544;51.032;5.866;2023-07-08T09:29:49;33.76;33.28
68556;HTU21D;55544;51.032;5.866;2023-07-08T09:32:22;33.94;32.58
68556;HTU21D;55544;51.032;5.866;2023-07-08T09:34:57;34.06;32.41
68556;HTU21D;55544;51.032;5.866;2023-07-08T09:37:32;34.18;32.13
68556;HTU21D;55544;51.032;5.866;2023-07-08T09:40:01;34.27;32.22
68556;HTU21D;55544;51.032;5.866;2023-07-08T09:42:32;34.36;31.75
68556;HTU21D;55544;51.032;5.866;2023-07-08T09:45:01;34.42;31.30
68556;HTU21D;55544;51.032;5.866;2023-07-08T09:47:33;34.47;30.58
68556;HTU21D;55544;51.032;5.866;2023-07-08T09:50:00;34.59;31.39
68556;HTU21D;55544;51.032;5.866;2023-07-08T09:52:29;34.65;30.43
68556;HTU21D;55544;51.032;5.866;2023-07-08T09:54:55;34.71;30.69
68556;HTU21D;55544;51.032;5.866;2023-07-08T09:57:23;34.81;30.16
68556;HTU21D;55544;51.032;5.866;2023-07-08T10:00:00;34.80;29.97
68556;HTU21D;55544;51.032;5.866;2023-07-08T10:05:19;34.99;31.12
68556;HTU21D;55544;51.032;5.866;2023-07-08T10:07:47;35.04;30.08
68556;HTU21D;55544;51.032;5.866;2023-07-08T10:10:22;35.11;30.04
68556;HTU21D;55544;51.032;5.866;2023-07-08T10:13:28;35.28;29.55
68556;HTU21D;55544;51.032;5.866;2023-07-08T10:18:42;35.30;28.99
68556;HTU21D;55544;51.032;5.866;2023-07-08T10:21:24;35.44;28.79
68556;HTU21D;55544;51.032;5.866;2023-07-08T10:24:16;35.50;29.26
68556;HTU21D;55544;51.032;5.866;2023-07-08T10:27:06;35.59;28.47
68556;HTU21D;55544;51.032;5.866;2023-07-08T10:30:02;35.78;28.98
68556;HTU21D;55544;51.032;5.866;2023-07-08T10:35:36;36.25;28.23
68556;HTU21D;55544;51.032;5.866;2023-07-08T10:41:17;36.16;27.38
68556;HTU21D;55544;51.032;5.866;2023-07-08T10:47:02;36.29;28.14
68556;HTU21D;55544;51.032;5.866;2023-07-08T10:53:17;37.04;26.78
68556;HTU21D;55544;51.032;5.866;2023-07-08T10:55:59;37.23;26.15
68556;HTU21D;55544;51.032;5.866;2023-07-08T11:01:27;37.77;24.94
68556;HTU21D;55544;51.032;5.866;2023-07-08T11:07:10;38.10;24.52
68556;HTU21D;55544;51.032;5.866;2023-07-08T11:09:51;38.37;24.40
68556;HTU21D;55544;51.032;5.866;2023-07-08T11:15:21;38.58;24.33
68556;HTU21D;55544;51.032;5.866;2023-07-08T11:21:07;39.02;23.71
68556;HTU21D;55544;51.032;5.866;2023-07-08T11:26:41;39.35;22.99
68556;HTU21D;55544;51.032;5.866;2023-07-08T11:29:22;39.53;22.84
68556;HTU21D;55544;51.032;5.866;2023-07-08T11:31:52;39.73;22.30
68556;HTU21D;55544;51.032;5.866;2023-07-08T11:34:21;39.85;21.13
68556;HTU21D;55544;51.032;5.866;2023-07-08T11:36:49;39.74;21.32
68556;HTU21D;55544;51.032;5.866;2023-07-08T11:39:34;39.61;21.92
68556;HTU21D;55544;51.032;5.866;2023-07-08T11:44:58;39.77;22.50
68556;HTU21D;55544;51.032;5.866;2023-07-08T11:47:40;39.69;22.72
68556;HTU21D;55544;51.032;5.866;2023-07-08T11:53:30;40.09;22.73
68556;HTU21D;55544;51.032;5.866;2023-07-08T11:58:49;40.22;21.63
68556;HTU21D;55544;51.032;5.866;2023-07-08T12:01:32;40.17;21.13
68556;HTU21D;55544;51.032;5.866;2023-07-08T12:04:31;40.23;20.74
68556;HTU21D;55544;51.032;5.866;2023-07-08T12:07:20;40.30;21.32
68556;HTU21D;55544;51.032;5.866;2023-07-08T12:10:16;40.50;21.01
68556;HTU21D;55544;51.032;5.866;2023-07-08T12:12:45;40.53;20.53
68556;HTU21D;55544;51.032;5.866;2023-07-08T12:15:24;40.11;20.36
68556;HTU21D;55544;51.032;5.866;2023-07-08T12:17:53;39.57;21.50
68556;HTU21D;55544;51.032;5.866;2023-07-08T12:20:30;39.43;21.34
68556;HTU21D;55544;51.032;5.866;2023-07-08T12:22:56;39.40;21.57
68556;HTU21D;55544;51.032;5.866;2023-07-08T12:25:27;39.43;21.37
68556;HTU21D;55544;51.032;5.866;2023-07-08T12:27:53;39.45;21.76
68556;HTU21D;55544;51.032;5.866;2023-07-08T12:30:19;39.84;21.07
68556;HTU21D;55544;51.032;5.866;2023-07-08T12:32:45;40.04;21.07
68556;HTU21D;55544;51.032;5.866;2023-07-08T12:35:32;39.98;21.71
68556;HTU21D;55544;51.032;5.866;2023-07-08T12:40:41;40.53;21.82
68556;HTU21D;55544;51.032;5.866;2023-07-08T12:43:10;40.98;20.47
68556;HTU21D;55544;51.032;5.866;2023-07-08T12:45:36;41.41;20.01
68556;HTU21D;55544;51.032;5.866;2023-07-08T12:48:02;41.80;19.70
68556;HTU21D;55544;51.032;5.866;2023-07-08T12:50:29;42.21;18.43
68556;HTU21D;55544;51.032;5.866;2023-07-08T12:52:55;42.49;17.86
68556;HTU21D;55544;51.032;5.866;2023-07-08T12:55:23;42.62;17.51
68556;HTU21D;55544;51.032;5.866;2023-07-08T12:57:51;42.60;17.47
68556;HTU21D;55544;51.032;5.866;2023-07-08T13:00:34;42.40;18.14
68556;HTU21D;55544;51.032;5.866;2023-07-08T13:03:05;42.52;18.11
68556;HTU21D;55544;51.032;5.866;2023-07-08T13:05:33;42.59;18.06
68556;HTU21D;55544;51.032;5.866;2023-07-08T13:08:00;42.61;18.13
68556;HTU21D;55544;51.032;5.866;2023-07-08T13:10:29;42.73;18.32
68556;HTU21D;55544;51.032;5.866;2023-07-08T13:13:04;42.78;18.53
68556;HTU21D;55544;51.032;5.866;2023-07-08T13:15:36;42.62;18.59
68556;HTU21D;55544;51.032;5.866;2023-07-08T13:18:08;42.60;18.23
68556;HTU21D;55544;51.032;5.866;2023-07-08T13:20:38;42.58;18.48
68556;HTU21D;55544;51.032;5.866;2023-07-08T13:23:05;42.45;17.86
68556;HTU21D;55544;51.032;5.866;2023-07-08T13:25:32;42.43;18.40
68556;HTU21D;55544;51.032;5.866;2023-07-08T13:28:14;42.26;18.30
68556;HTU21D;55544;51.032;5.866;2023-07-08T13:30:59;42.28;18.15
68556;HTU21D;55544;51.032;5.866;2023-07-08T13:33:33;41.92;18.73
68556;HTU21D;55544;51.032;5.866;2023-07-08T13:36:04;40.76;20.00
68556;HTU21D;55544;51.032;5.866;2023-07-08T13:38:35;40.17;22.01
68556;HTU21D;55544;51.032;5.866;2023-07-08T13:41:05;39.61;21.79
68556;HTU21D;55544;51.032;5.866;2023-07-08T13:43:36;39.18;21.08
68556;HTU21D;55544;51.032;5.866;2023-07-08T13:46:03;39.10;20.51
68556;HTU21D;55544;51.032;5.866;2023-07-08T13:48:37;39.15;20.30
68556;HTU21D;55544;51.032;5.866;2023-07-08T13:51:08;39.18;19.91
68556;HTU21D;55544;51.032;5.866;2023-07-08T13:53:45;38.88;22.74
68556;HTU21D;55544;51.032;5.866;2023-07-08T13:56:41;38.70;24.22
68556;HTU21D;55544;51.032;5.866;2023-07-08T13:59:12;38.68;25.04
68556;HTU21D;55544;51.032;5.866;2023-07-08T14:01:41;38.64;25.59
68556;HTU21D;55544;51.032;5.866;2023-07-08T14:04:10;38.62;25.94
68556;HTU21D;55544;51.032;5.866;2023-07-08T14:06:38;38.52;26.77
68556;HTU21D;55544;51.032;5.866;2023-07-08T14:09:17;38.19;25.20
68556;HTU21D;55544;51.032;5.866;2023-07-08T14:11:44;38.01;24.47
68556;HTU21D;55544;51.032;5.866;2023-07-08T14:14:11;37.93;24.53
68556;HTU21D;55544;51.032;5.866;2023-07-08T14:16:43;37.85;26.60
68556;HTU21D;55544;51.032;5.866;2023-07-08T14:19:22;37.76;28.17
68556;HTU21D;55544;51.032;5.866;2023-07-08T14:22:00;37.61;29.24
68556;HTU21D;55544;51.032;5.866;2023-07-08T14:24:27;37.26;27.39
68556;HTU21D;55544;51.032;5.866;2023-07-08T14:26:53;36.95;27.55
68556;HTU21D;55544;51.032;5.866;2023-07-08T14:29:19;36.78;27.56
68556;HTU21D;55544;51.032;5.866;2023-07-08T14:31:45;36.80;27.42
68556;HTU21D;55544;51.032;5.866;2023-07-08T14:34:23;36.96;27.33
68556;HTU21D;55544;51.032;5.866;2023-07-08T14:36:50;36.95;27.34
68556;HTU21D;55544;51.032;5.866;2023-07-08T14:39:18;37.05;28.42
68556;HTU21D;55544;51.032;5.866;2023-07-08T14:41:46;37.11;28.08
68556;HTU21D;55544;51.032;5.866;2023-07-08T14:44:33;37.23;28.38
68556;HTU21D;55544;51.032;5.866;2023-07-08T14:47:00;37.48;29.94
68556;HTU21D;55544;51.032;5.866;2023-07-08T14:49:27;37.61;29.84
68556;HTU21D;55544;51.032;5.866;2023-07-08T14:51:53;37.74;29.68
68556;HTU21D;55544;51.032;5.866;2023-07-08T14:54:20;37.84;30.12
68556;HTU21D;55544;51.032;5.866;2023-07-08T14:56:48;37.84;28.40
68556;HTU21D;55544;51.032;5.866;2023-07-08T14:59:22;37.86;28.68
68556;HTU21D;55544;51.032;5.866;2023-07-08T15:01:49;37.88;29.35
68556;HTU21D;55544;51.032;5.866;2023-07-08T15:04:17;37.84;28.86
68556;HTU21D;55544;51.032;5.866;2023-07-08T15:06:44;37.67;28.65
68556;HTU21D;55544;51.032;5.866;2023-07-08T15:09:11;37.51;27.81
68556;HTU21D;55544;51.032;5.866;2023-07-08T15:11:38;37.40;27.49
68556;HTU21D;55544;51.032;5.866;2023-07-08T15:14:31;37.32;26.74
68556;HTU21D;55544;51.032;5.866;2023-07-08T15:16:56;37.29;28.49
68556;HTU21D;55544;51.032;5.866;2023-07-08T15:19:24;37.23;29.17
68556;HTU21D;55544;51.032;5.866;2023-07-08T15:21:50;37.17;30.19
68556;HTU21D;55544;51.032;5.866;2023-07-08T15:24:16;37.10;32.35
68556;HTU21D;55544;51.032;5.866;2023-07-08T15:26:45;36.97;34.15
68556;HTU21D;55544;51.032;5.866;2023-07-08T15:29:22;36.88;33.55
68556;HTU21D;55544;51.032;5.866;2023-07-08T15:31:49;36.73;33.65
68556;HTU21D;55544;51.032;5.866;2023-07-08T15:34:18;36.60;33.97
68556;HTU21D;55544;51.032;5.866;2023-07-08T15:36:44;36.44;34.34
68556;HTU21D;55544;51.032;5.866;2023-07-08T15:39:10;36.28;33.73
68556;HTU21D;55544;51.032;5.866;2023-07-08T15:41:37;35.97;33.96
68556;HTU21D;55544;51.032;5.866;2023-07-08T15:44:08;35.74;32.98
68556;HTU21D;55544;51.032;5.866;2023-07-08T15:46:37;35.59;33.56
68556;HTU21D;55544;51.032;5.866;2023-07-08T15:49:24;35.53;32.89
68556;HTU21D;55544;51.032;5.866;2023-07-08T15:51:52;35.52;33.67
68556;HTU21D;55544;51.032;5.866;2023-07-08T15:54:19;35.47;34.51
68556;HTU21D;55544;51.032;5.866;2023-07-08T15:56:49;35.44;35.33
68556;HTU21D;55544;51.032;5.866;2023-07-08T15:59:26;35.65;34.91
68556;HTU21D;55544;51.032;5.866;2023-07-08T16:01:54;35.96;35.12
68556;HTU21D;55544;51.032;5.866;2023-07-08T16:04:25;36.18;32.07
68556;HTU21D;55544;51.032;5.866;2023-07-08T16:06:52;36.30;32.88
68556;HTU21D;55544;51.032;5.866;2023-07-08T16:09:17;36.32;33.25
68556;HTU21D;55544;51.032;5.866;2023-07-08T16:11:44;36.37;32.86
68556;HTU21D;55544;51.032;5.866;2023-07-08T16:14:13;36.37;32.04
68556;HTU21D;55544;51.032;5.866;2023-07-08T16:16:40;36.46;32.59
68556;HTU21D;55544;51.032;5.866;2023-07-08T16:19:11;36.60;33.13
68556;HTU21D;55544;51.032;5.866;2023-07-08T16:21:38;36.76;33.10
68556;HTU21D;55544;51.032;5.866;2023-07-08T16:24:04;36.95;32.47
68556;HTU21D;55544;51.032;5.866;2023-07-08T16:26:30;37.11;32.86
68556;HTU21D;55544;51.032;5.866;2023-07-08T16:28:57;37.12;32.07
68556;HTU21D;55544;51.032;5.866;2023-07-08T16:31:25;37.08;31.37
68556;HTU21D;55544;51.032;5.866;2023-07-08T16:33:54;37.02;32.09
68556;HTU21D;55544;51.032;5.866;2023-07-08T16:36:25;36.88;31.21